Time;durP1;ratioP1;P1;durP2;ratioP2;P2;SDS_P1;SDS_P2;PMS_P1;PMS_P2;Temp;Humidity;BMP_temperature;BMP_pressure;BME280_temperature;BME280_humidity;BME280_pressure;Samples;Min_cycle;Max_cycle;Signal;HPM_P1;HPM_P2
2020/12/25 00:00:08;;;;;;;12.40;6.50;;;;;;;12.90;35.90;103519.03;5025030;28;20040;-76
2020/12/25 00:02:34;;;;;;;8.40;4.93;;;;;;;12.88;35.92;103526.72;5022819;28;20068;-75
2020/12/25 00:04:59;;;;;;;9.00;5.00;;;;;;;12.86;36.10;103528.91;5019882;28;20026;-76
2020/12/25 00:07:25;;;;;;;6.67;4.43;;;;;;;12.84;36.09;103520.06;5022530;28;20022;-79
2020/12/25 00:09:50;;;;;;;7.33;4.13;;;;;;;12.81;36.20;103523.34;5021861;28;20037;-76
2020/12/25 00:12:16;;;;;;;7.27;3.07;;;;;;;12.74;35.72;103518.06;5007225;28;20025;-78
2020/12/25 00:14:41;;;;;;;7.20;3.63;;;;;;;12.80;35.96;103518.97;5024127;28;20029;-76
2020/12/25 00:17:07;;;;;;;10.18;4.00;;;;;;;12.80;35.96;103518.97;5005640;28;20022;-75
2020/12/25 00:19:32;;;;;;;9.30;3.58;;;;;;;12.71;36.18;103516.69;5022743;28;20030;-81
2020/12/25 00:21:58;;;;;;;6.50;3.10;;;;;;;12.70;36.15;103519.69;5024424;28;20037;-76
2020/12/25 00:24:24;;;;;;;6.97;3.67;;;;;;;12.63;36.41;103508.94;5030006;28;20086;-82
2020/12/25 00:26:49;;;;;;;7.70;3.50;;;;;;;12.69;36.27;103507.88;5035003;28;20029;-77
2020/12/25 00:29:15;;;;;;;7.70;3.60;;;;;;;12.68;36.30;103511.72;5017740;28;20033;-76
2020/12/25 00:31:40;;;;;;;9.77;3.93;;;;;;;12.70;36.29;103504.06;5035272;28;20030;-80
2020/12/25 00:34:13;;;;;;;9.07;4.77;;;;;;;12.74;36.24;103498.88;5033084;28;20030;-76
2020/12/25 00:36:40;;;;;;;9.07;6.43;;;;;;;12.78;36.15;103497.28;5016680;28;20034;-76
2020/12/25 00:39:09;;;;;;;8.57;5.90;;;;;;;12.76;36.16;103486.53;5014176;28;20167;-86
2020/12/25 00:41:34;;;;;;;8.63;5.00;;;;;;;12.71;36.36;103486.50;5015065;28;20041;-83
2020/12/25 00:44:00;;;;;;;10.37;5.60;;;;;;;12.63;36.40;103487.00;4997327;28;20484;-88
2020/12/25 00:46:26;;;;;;;10.95;5.63;;;;;;;12.57;36.65;103481.72;5033041;28;20080;-85
2020/12/25 00:48:53;;;;;;;14.10;5.40;;;;;;;12.56;36.49;103480.06;5034802;28;20025;-85
2020/12/25 00:51:21;;;;;;;12.07;7.37;;;;;;;12.53;36.65;103481.38;5035380;28;20030;-86
2020/12/25 00:53:48;;;;;;;32.08;18.05;;;;;;;12.54;36.68;103482.22;5043043;28;20029;-77
2020/12/25 00:56:14;;;;;;;24.83;13.40;;;;;;;12.55;36.63;103481.16;5051693;28;20037;-76
2020/12/25 00:58:41;;;;;;;52.57;27.53;;;;;;;12.53;36.83;103494.28;5048850;28;20037;-75
2020/12/25 01:01:12;;;;;;;249.13;123.73;;;;;;;12.50;36.75;103488.22;5054708;28;20107;-87
2020/12/25 01:03:39;;;;;;;405.73;209.70;;;;;;;12.49;36.86;103497.56;5054617;28;20440;-87
2020/12/25 01:06:10;;;;;;;130.38;60.22;;;;;;;12.43;36.97;103486.78;5054559;28;20025;-87
2020/12/25 01:08:36;;;;;;;62.73;28.07;;;;;;;12.47;37.00;103490.69;5054170;28;20480;-75
2020/12/25 01:11:02;;;;;;;35.53;14.87;;;;;;;12.45;37.07;103490.09;5054395;28;20021;-88
2020/12/25 01:13:28;;;;;;;60.77;27.97;;;;;;;12.39;37.13;103499.34;5054303;28;20040;-87
2020/12/25 01:15:53;;;;;;;61.00;26.43;;;;;;;12.36;37.18;103494.38;5054310;28;20070;-81
2020/12/25 01:18:19;;;;;;;46.60;19.20;;;;;;;12.35;37.18;103488.06;5053012;28;20025;-79
2020/12/25 01:20:44;;;;;;;151.43;60.30;;;;;;;12.37;37.16;103490.56;5054234;28;20487;-87
2020/12/25 01:23:10;;;;;;;187.43;78.20;;;;;;;12.34;37.29;103485.59;5054100;28;20368;-75
2020/12/25 01:25:36;;;;;;;247.57;97.00;;;;;;;12.35;37.21;103482.59;5054052;28;20028;-75
2020/12/25 01:28:01;;;;;;;441.53;180.03;;;;;;;12.34;37.30;103482.84;5053908;28;20086;-76
2020/12/25 01:30:27;;;;;;;98.87;40.50;;;;;;;12.32;37.35;103479.53;5053968;28;20056;-76
2020/12/25 01:32:53;;;;;;;37.77;14.77;;;;;;;12.33;37.33;103484.78;5053852;28;20098;-76
2020/12/25 01:35:18;;;;;;;273.50;107.33;;;;;;;12.26;37.48;103470.44;5053881;28;20438;-76
2020/12/25 01:37:44;;;;;;;70.47;29.53;;;;;;;12.34;37.37;103469.16;5053862;28;20033;-75
2020/12/25 01:40:10;;;;;;;73.85;28.75;;;;;;;12.30;37.49;103468.81;5053703;28;20032;-75
2020/12/25 01:42:36;;;;;;;197.10;72.45;;;;;;;12.33;37.67;103464.75;5053533;28;20032;-75
2020/12/25 01:45:04;;;;;;;68.73;24.37;;;;;;;12.34;37.34;103460.91;5053895;28;20028;-76
2020/12/25 01:47:30;;;;;;;15.50;4.95;;;;;;;12.30;37.74;103459.78;5035870;28;20045;-75
2020/12/25 01:49:56;;;;;;;28.63;12.37;;;;;;;12.19;38.05;103454.19;5033989;28;20029;-75
2020/12/25 01:52:23;;;;;;;8.98;4.75;;;;;;;12.18;38.17;103446.22;5016344;28;20074;-75
2020/12/25 01:54:49;;;;;;;13.90;6.37;;;;;;;12.10;38.45;103447.53;5016263;28;20026;-76
2020/12/25 01:57:16;;;;;;;10.53;4.13;;;;;;;12.08;38.27;103446.94;5033672;28;20048;-86
2020/12/25 01:59:42;;;;;;;11.03;5.47;;;;;;;12.16;38.20;103438.25;5033536;28;20025;-87
2020/12/25 02:02:08;;;;;;;10.87;5.23;;;;;;;12.02;38.61;103450.72;5015591;28;20030;-76
2020/12/25 02:04:34;;;;;;;9.87;4.83;;;;;;;11.81;39.19;103444.16;5033295;28;20034;-86
2020/12/25 02:07:00;;;;;;;13.10;6.27;;;;;;;11.84;38.89;103446.38;5033623;28;20079;-88
2020/12/25 02:09:26;;;;;;;18.53;7.27;;;;;;;11.83;39.15;103438.44;5015856;28;20044;-81
2020/12/25 02:11:55;;;;;;;16.75;7.55;;;;;;;11.76;39.04;103435.84;5032778;28;20029;-87
2020/12/25 02:14:21;;;;;;;10.87;5.27;;;;;;;11.74;39.16;103445.41;5033208;28;20108;-86
2020/12/25 02:16:46;;;;;;;14.17;6.83;;;;;;;11.79;39.13;103442.72;5033293;28;20070;-86
2020/12/25 02:19:12;;;;;;;24.07;9.67;;;;;;;11.83;39.11;103439.25;5033231;28;20030;-75
2020/12/25 02:21:38;;;;;;;13.77;7.37;;;;;;;11.57;39.81;103435.34;5015691;28;20030;-74
2020/12/25 02:24:04;;;;;;;20.67;10.07;;;;;;;11.55;39.72;103436.66;5032758;28;20061;-75
2020/12/25 02:26:30;;;;;;;18.70;8.80;;;;;;;11.71;39.44;103433.03;5015555;28;20036;-76
2020/12/25 02:28:56;;;;;;;11.17;5.90;;;;;;;11.66;39.44;103428.34;5032918;28;20035;-87
2020/12/25 02:31:23;;;;;;;9.43;5.40;;;;;;;11.66;39.59;103433.00;5015396;28;20034;-87
2020/12/25 02:33:48;;;;;;;13.85;5.82;;;;;;;11.48;39.91;103425.06;5033118;28;20025;-87
2020/12/25 02:36:14;;;;;;;17.10;7.63;;;;;;;11.52;40.15;103432.53;5015429;28;20468;-75
2020/12/25 02:38:40;;;;;;;13.73;6.32;;;;;;;11.29;40.57;103427.28;5032798;28;20037;-75
2020/12/25 02:41:05;;;;;;;54.00;19.57;;;;;;;11.51;40.17;103430.88;5032905;28;20503;-74
2020/12/25 02:43:31;;;;;;;19.87;8.57;;;;;;;11.64;39.77;103429.69;5032675;28;20484;-75
2020/12/25 02:45:56;;;;;;;16.33;7.80;;;;;;;11.73;39.61;103436.38;5032897;28;20124;-87
2020/12/25 02:48:22;;;;;;;34.47;15.02;;;;;;;11.68;40.03;103439.03;5032955;28;20494;-76
2020/12/25 02:50:48;;;;;;;107.33;48.73;;;;;;;11.80;39.74;103431.56;5032648;28;20087;-87
2020/12/25 02:53:13;;;;;;;106.70;50.10;;;;;;;11.87;39.60;103428.63;5015204;28;20113;-87
2020/12/25 02:55:40;;;;;;;17.50;8.67;;;;;;;11.91;39.53;103427.00;5032412;28;20431;-79
2020/12/25 02:58:05;;;;;;;21.43;9.07;;;;;;;11.93;39.69;103433.06;5032917;28;20056;-87
2020/12/25 03:00:31;;;;;;;18.80;9.37;;;;;;;11.95;39.45;103450.09;5015088;28;20030;-87
2020/12/25 03:02:56;;;;;;;17.83;9.13;;;;;;;11.98;39.49;103448.75;5033045;28;20645;-75
2020/12/25 03:05:22;;;;;;;18.10;9.30;;;;;;;12.03;39.44;103449.63;5015146;28;20030;-75
2020/12/25 03:07:47;;;;;;;31.60;16.37;;;;;;;12.09;39.34;103442.28;5032681;28;20061;-75
2020/12/25 03:10:13;;;;;;;38.10;22.73;;;;;;;12.12;39.53;103442.59;5032837;28;20029;-85
2020/12/25 03:12:40;;;;;;;21.57;14.00;;;;;;;12.14;39.30;103436.84;5014845;28;20045;-86
2020/12/25 03:15:06;;;;;;;19.90;12.03;;;;;;;12.19;39.21;103435.00;5015013;28;20031;-75
2020/12/25 03:17:31;;;;;;;10.00;5.90;;;;;;;12.20;39.28;103435.84;5032652;28;20436;-83
2020/12/25 03:19:57;;;;;;;12.20;8.10;;;;;;;12.18;39.19;103438.00;5032351;28;20037;-75
2020/12/25 03:22:22;;;;;;;10.30;5.83;;;;;;;12.17;39.44;103437.19;5032746;28;20033;-75
2020/12/25 03:24:48;;;;;;;8.67;5.80;;;;;;;12.23;39.60;103438.03;5015045;28;20484;-75
2020/12/25 03:27:14;;;;;;;19.30;7.00;;;;;;;12.25;39.40;103435.88;5014881;28;20476;-75
2020/12/25 03:29:39;;;;;;;10.40;5.43;;;;;;;12.32;39.28;103419.22;5032792;28;20460;-76
2020/12/25 03:32:05;;;;;;;10.87;5.20;;;;;;;12.36;39.14;103418.44;5032520;28;20029;-87
2020/12/25 03:34:30;;;;;;;10.27;5.13;;;;;;;12.34;39.30;103422.53;5014992;28;20030;-84
2020/12/25 03:36:57;;;;;;;11.30;5.33;;;;;;;12.31;39.44;103423.88;5014755;28;20025;-87
2020/12/25 03:39:22;;;;;;;7.53;4.83;;;;;;;12.33;39.09;103426.38;5032580;28;20026;-87
2020/12/25 03:41:48;;;;;;;8.03;4.63;;;;;;;12.37;39.20;103431.06;5034666;28;20040;-76
2020/12/25 03:44:14;;;;;;;9.00;4.93;;;;;;;12.23;39.84;103433.38;5036220;28;20383;-81
2020/12/25 03:46:39;;;;;;;11.03;5.00;;;;;;;12.20;39.58;103428.44;5035738;28;20129;-75
2020/12/25 03:49:06;;;;;;;11.30;5.17;;;;;;;12.30;39.36;103427.69;5035849;28;20021;-75
2020/12/25 03:51:32;;;;;;;7.67;4.20;;;;;;;12.01;40.17;103418.91;5036133;28;20053;-75
2020/12/25 03:53:58;;;;;;;9.43;4.50;;;;;;;12.22;39.54;103426.25;5017893;28;20522;-75
2020/12/25 03:56:23;;;;;;;7.57;4.77;;;;;;;12.35;39.41;103429.66;5035923;28;20451;-87
2020/12/25 03:58:49;;;;;;;11.17;4.43;;;;;;;12.28;39.53;103426.31;5035788;28;20435;-76
2020/12/25 04:01:15;;;;;;;7.97;4.33;;;;;;;12.42;39.10;103419.31;5035786;28;20080;-77
2020/12/25 04:03:40;;;;;;;8.37;4.77;;;;;;;12.33;39.29;103421.72;5017929;28;20051;-80
2020/12/25 04:06:06;;;;;;;9.97;4.77;;;;;;;12.40;39.31;103416.03;5035610;28;20076;-75
2020/12/25 04:08:32;;;;;;;9.80;4.60;;;;;;;12.32;39.31;103416.47;5035639;28;20468;-76
2020/12/25 04:10:57;;;;;;;9.00;4.40;;;;;;;12.27;39.63;103411.78;5018246;28;20032;-87
2020/12/25 04:13:23;;;;;;;7.63;4.33;;;;;;;12.34;39.22;103411.56;5035556;28;20380;-87
2020/12/25 04:15:49;;;;;;;7.07;3.80;;;;;;;12.28;39.55;103412.59;5035413;28;20033;-83
2020/12/25 04:18:15;;;;;;;8.73;4.00;;;;;;;12.28;39.48;103412.59;5035417;28;20029;-85
2020/12/25 04:20:40;;;;;;;9.27;4.57;;;;;;;12.33;39.24;103413.50;5035424;28;20029;-86
2020/12/25 04:23:06;;;;;;;9.87;4.80;;;;;;;12.28;39.39;103420.84;5035509;28;20067;-87
2020/12/25 04:25:32;;;;;;;6.43;3.87;;;;;;;12.22;39.57;103411.72;5035317;28;20029;-80
2020/12/25 04:27:57;;;;;;;7.07;3.73;;;;;;;12.20;39.69;103414.72;5035254;28;20508;-75
2020/12/25 04:30:23;;;;;;;6.77;3.97;;;;;;;12.18;39.73;103416.09;5017595;28;20037;-75
2020/12/25 04:32:49;;;;;;;8.87;4.27;;;;;;;12.00;39.86;103409.03;5035235;28;20037;-75
2020/12/25 04:35:15;;;;;;;6.70;3.73;;;;;;;11.92;40.10;103414.97;5035124;28;20041;-74
2020/12/25 04:37:41;;;;;;;7.63;3.60;;;;;;;12.08;39.88;103408.56;5035144;28;20032;-75
2020/12/25 04:40:06;;;;;;;10.03;4.77;;;;;;;12.07;39.84;103406.91;5034921;28;20029;-87
2020/12/25 04:42:40;;;;;;;9.47;3.80;;;;;;;12.04;40.15;103404.69;5034967;28;20033;-86
2020/12/25 04:45:06;;;;;;;7.23;3.70;;;;;;;12.09;39.87;103404.75;5034973;28;20075;-75
2020/12/25 04:47:34;;;;;;;11.10;3.60;;;;;;;12.21;39.76;103410.06;5034922;28;20049;-75
2020/12/25 04:50:01;;;;;;;6.43;3.50;;;;;;;12.22;39.66;103417.19;5035327;28;20036;-77
2020/12/25 04:52:27;;;;;;;7.33;3.70;;;;;;;12.21;39.64;103410.06;5034563;28;20496;-87
2020/12/25 04:54:52;;;;;;;9.57;3.27;;;;;;;12.28;39.59;103418.09;5034952;28;20103;-85
2020/12/25 04:57:18;;;;;;;6.10;3.47;;;;;;;12.27;39.70;103410.94;5034755;28;20044;-75
2020/12/25 04:59:44;;;;;;;7.07;4.03;;;;;;;12.27;39.58;103409.03;5034881;28;20033;-75
2020/12/25 05:02:09;;;;;;;8.07;3.67;;;;;;;12.24;39.54;103415.03;5034472;28;20500;-75
2020/12/25 05:04:35;;;;;;;9.07;3.23;;;;;;;12.24;39.56;103409.53;5034576;28;20480;-75
2020/12/25 05:07:01;;;;;;;11.13;3.60;;;;;;;12.23;39.62;103405.16;5034653;28;20065;-75
2020/12/25 05:09:28;;;;;;;13.53;4.80;;;;;;;12.26;39.47;103410.13;5034584;28;20025;-75
2020/12/25 05:11:55;;;;;;;6.60;3.13;;;;;;;12.23;39.36;103411.44;5034337;28;20084;-87
2020/12/25 05:14:28;;;;;;;9.57;3.60;;;;;;;12.08;39.73;103405.81;5034418;28;20033;-75
2020/12/25 05:16:55;;;;;;;11.27;3.90;;;;;;;12.16;39.53;103408.09;5034320;28;20039;-75
2020/12/25 05:19:31;;;;;;;8.07;3.73;;;;;;;12.10;39.70;103405.59;5034522;28;20568;-75
2020/12/25 05:21:59;;;;;;;7.90;3.13;;;;;;;12.07;39.73;103406.09;5034399;28;20394;-85
2020/12/25 05:24:26;;;;;;;9.10;3.53;;;;;;;12.15;39.75;103395.47;5034439;28;20032;-86
2020/12/25 05:26:56;;;;;;;5.33;2.90;;;;;;;12.16;39.78;103399.03;5034102;28;20028;-75
2020/12/25 05:29:23;;;;;;;10.33;3.43;;;;;;;12.09;39.74;103399.28;5034083;28;20432;-87
2020/12/25 05:31:51;;;;;;;6.40;3.43;;;;;;;12.17;39.88;103395.25;5034037;28;20161;-74
2020/12/25 05:34:18;;;;;;;5.70;3.00;;;;;;;12.19;39.86;103393.88;5034165;28;20537;-86
2020/12/25 05:36:54;;;;;;;7.83;3.47;;;;;;;12.20;39.88;103392.78;5034170;28;20056;-75
2020/12/25 05:39:32;;;;;;;10.23;3.97;;;;;;;12.17;39.97;103393.31;5016584;28;20440;-75
2020/12/25 05:42:02;;;;;;;6.88;3.25;;;;;;;12.18;39.91;103392.25;5033718;28;20040;-87
2020/12/25 05:44:30;;;;;;;5.27;3.00;;;;;;;12.25;39.85;103385.72;5033726;28;20025;-84
2020/12/25 05:46:59;;;;;;;10.63;3.67;;;;;;;12.16;39.85;103386.16;5033666;28;20463;-87
2020/12/25 05:49:29;;;;;;;6.28;3.13;;;;;;;12.29;39.67;103384.09;5033689;28;20606;-88
2020/12/25 05:51:56;;;;;;;7.13;3.17;;;;;;;12.20;39.86;103381.84;5033772;28;20538;-87
2020/12/25 05:54:24;;;;;;;8.07;3.33;;;;;;;12.26;39.72;103369.00;5016273;28;20091;-87
2020/12/25 05:56:52;;;;;;;7.07;3.37;;;;;;;12.34;39.50;103364.97;5015501;28;20029;-75
2020/12/25 05:59:31;;;;;;;8.25;3.60;;;;;;;12.28;39.67;103379.72;5033409;28;20036;-75
2020/12/25 06:01:59;;;;;;;8.23;4.32;;;;;;;12.33;39.61;103372.38;5033343;28;20079;-75
2020/12/25 06:04:27;;;;;;;4.70;3.03;;;;;;;12.22;39.99;103365.13;5014995;28;20029;-75
2020/12/25 06:06:54;;;;;;;11.07;3.37;;;;;;;12.17;40.00;103371.41;5033492;28;20101;-75
2020/12/25 06:09:27;;;;;;;6.53;3.43;;;;;;;11.80;40.95;103374.03;5015404;28;20025;-75
2020/12/25 06:11:52;;;;;;;9.47;3.90;;;;;;;11.59;41.62;103372.94;5033801;28;20052;-76
2020/12/25 06:14:18;;;;;;;6.70;3.30;;;;;;;11.85;40.88;103379.53;5032977;28;20021;-86
2020/12/25 06:16:51;;;;;;;7.47;3.70;;;;;;;11.99;40.60;103376.41;5033368;28;20029;-75
2020/12/25 06:19:37;;;;;;;13.77;4.97;;;;;;;12.07;40.31;103378.69;5015997;28;20021;-87
2020/12/25 06:22:09;;;;;;;5.90;3.83;;;;;;;12.14;40.21;103388.34;5033251;28;20025;-83
2020/12/25 06:24:38;;;;;;;8.07;3.90;;;;;;;11.98;40.51;103386.53;5033646;28;20036;-76
2020/12/25 06:27:04;;;;;;;11.83;4.80;;;;;;;12.15;40.22;103390.00;5033253;28;20029;-75
2020/12/25 06:29:30;;;;;;;8.60;3.97;;;;;;;12.10;40.30;103383.66;5033505;28;20031;-75
2020/12/25 06:31:57;;;;;;;8.60;3.50;;;;;;;12.09;40.48;103382.84;5033021;28;20108;-88
2020/12/25 06:34:48;;;;;;;9.13;4.10;;;;;;;11.79;40.96;103388.78;5032985;28;20025;-88
2020/12/25 06:37:16;;;;;;;7.67;3.70;;;;;;;12.04;40.43;103385.50;5033101;28;20033;-75
2020/12/25 06:39:53;;;;;;;6.67;3.57;;;;;;;12.14;40.23;103379.28;5032840;28;20443;-75
2020/12/25 06:42:29;;;;;;;22.50;6.00;;;;;;;12.07;40.54;103381.41;5032524;28;20069;-86
2020/12/25 06:44:58;;;;;;;7.93;4.07;;;;;;;12.14;40.41;103379.28;5033175;28;20025;-87
2020/12/25 06:47:32;;;;;;;14.57;7.05;;;;;;;12.18;40.35;103370.31;5032786;28;20052;-75
2020/12/25 06:50:06;;;;;;;7.30;4.23;;;;;;;12.25;40.37;103366.53;5032974;28;20032;-75
2020/12/25 06:52:32;;;;;;;10.97;5.87;;;;;;;12.20;40.30;103361.81;5032958;28;20071;-87
2020/12/25 06:54:58;;;;;;;10.07;4.57;;;;;;;12.27;40.30;103361.59;5032968;28;20022;-86
2020/12/25 06:57:27;;;;;;;17.13;10.20;;;;;;;12.18;40.51;103362.09;5032655;28;20044;-75
2020/12/25 06:59:56;;;;;;;10.88;5.85;;;;;;;12.06;40.84;103361.41;5032824;28;20056;-83
2020/12/25 07:02:25;;;;;;;13.00;6.10;;;;;;;11.93;40.79;103368.13;5015345;28;20036;-75
2020/12/25 07:05:00;;;;;;;11.97;5.63;;;;;;;12.14;40.65;103371.06;5032870;28;20018;-76
2020/12/25 07:07:34;;;;;;;9.67;5.97;;;;;;;12.13;40.78;103366.69;5033196;28;20025;-87
2020/12/25 07:10:08;;;;;;;9.53;4.27;;;;;;;12.14;40.73;103366.41;5018125;28;20032;-86
2020/12/25 07:12:34;;;;;;;49.83;30.37;;;;;;;12.19;40.53;103355.50;5012250;28;20109;-79
2020/12/25 07:14:59;;;;;;;13.83;7.27;;;;;;;12.20;40.88;103361.81;5013122;28;20102;-86
2020/12/25 07:17:25;;;;;;;18.95;8.38;;;;;;;12.28;40.38;103353.13;5016460;28;20022;-86
2020/12/25 07:19:51;;;;;;;64.40;35.67;;;;;;;12.26;40.56;103354.47;5016672;28;20033;-86
2020/12/25 07:22:22;;;;;;;26.10;14.43;;;;;;;12.18;40.69;103355.78;5016651;28;20029;-85
2020/12/25 07:24:48;;;;;;;10.27;4.50;;;;;;;12.08;41.12;103356.50;5017236;28;20029;-78
2020/12/25 07:27:15;;;;;;;11.52;5.90;;;;;;;12.18;40.83;103355.78;5016776;28;20018;-90
2020/12/25 07:29:42;;;;;;;8.70;5.37;;;;;;;12.15;41.06;103354.38;4998450;28;20116;-77
2020/12/25 07:32:11;;;;;;;8.10;5.70;;;;;;;12.25;40.77;103352.81;4997049;28;20022;-86
2020/12/25 07:34:37;;;;;;;11.57;7.45;;;;;;;12.18;40.96;103355.78;4998787;28;20642;-81
2020/12/25 07:37:03;;;;;;;8.43;4.28;;;;;;;12.27;40.93;103340.50;4998389;28;20054;-77
2020/12/25 07:39:29;;;;;;;13.00;7.77;;;;;;;12.29;40.91;103342.97;5024932;28;20018;-80
2020/12/25 07:41:56;;;;;;;27.67;24.85;;;;;;;12.34;40.76;103345.78;5013794;28;20030;-80
2020/12/25 07:44:22;;;;;;;6.47;4.40;;;;;;;12.20;41.23;103334.41;5035522;28;20061;-77
2020/12/25 07:46:48;;;;;;;10.20;5.97;;;;;;;12.21;41.19;103350.59;5016719;28;20037;-77
2020/12/25 07:49:14;;;;;;;13.37;8.60;;;;;;;12.16;41.38;103344.22;5018063;28;20514;-75
2020/12/25 07:51:40;;;;;;;7.73;4.40;;;;;;;12.33;41.15;103333.16;5035094;28;20028;-75
2020/12/25 07:54:06;;;;;;;12.57;8.53;;;;;;;12.34;41.30;103334.81;5035461;28;20057;-81
2020/12/25 07:56:35;;;;;;;9.25;4.38;;;;;;;12.36;40.81;103335.34;5017156;28;20484;-75
2020/12/25 07:59:03;;;;;;;7.45;3.90;;;;;;;12.44;41.22;103329.38;5033299;28;20116;-76
2020/12/25 08:01:31;;;;;;;8.77;3.90;;;;;;;12.50;41.15;103328.34;5033861;28;20112;-76
2020/12/25 08:03:58;;;;;;;9.27;4.63;;;;;;;12.52;41.28;103326.16;5034683;28;20562;-75
2020/12/25 08:06:27;;;;;;;12.47;4.77;;;;;;;12.37;41.49;103321.38;5016652;28;20030;-75
2020/12/25 08:09:14;;;;;;;8.50;4.57;;;;;;;12.29;41.88;103318.31;5034388;28;20053;-75
2020/12/25 08:11:41;;;;;;;8.70;3.97;;;;;;;12.50;41.39;103307.22;5034380;28;20025;-75
2020/12/25 08:14:09;;;;;;;10.80;4.90;;;;;;;12.43;41.71;103314.03;5034348;28;20025;-76
2020/12/25 08:16:44;;;;;;;9.00;5.10;;;;;;;12.37;41.96;103312.34;5033712;28;20030;-76
2020/12/25 08:19:10;;;;;;;10.20;4.50;;;;;;;12.50;41.70;103312.72;5033396;28;20029;-78
2020/12/25 08:21:38;;;;;;;8.80;4.65;;;;;;;12.52;41.82;103301.47;5033332;28;20025;-76
2020/12/25 08:24:07;;;;;;;10.27;5.03;;;;;;;12.37;42.24;103307.69;5033470;28;20431;-78
2020/12/25 08:26:39;;;;;;;11.70;4.43;;;;;;;12.23;42.80;103310.03;5032889;28;20472;-79
2020/12/25 08:29:05;;;;;;;6.65;3.88;;;;;;;12.58;42.20;103308.66;5015714;28;20037;-78
2020/12/25 08:31:34;;;;;;;7.40;4.20;;;;;;;12.69;41.92;103302.13;5032712;28;20036;-80
2020/12/25 08:34:00;;;;;;;;;;;;;;;12.36;42.79;103296.97;5015801;28;20029;-77
2020/12/25 08:36:26;;;;;;;8.27;3.70;;;;;;;12.55;42.39;103292.75;5033230;28;19913;-78
2020/12/25 08:38:51;;;;;;;9.50;4.83;;;;;;;12.50;42.53;103298.19;5012401;28;20033;-77
2020/12/25 08:41:17;;;;;;;8.47;4.00;;;;;;;12.67;42.18;103290.59;5027523;28;20029;-79
2020/12/25 08:43:43;;;;;;;9.77;3.97;;;;;;;12.63;42.22;103289.50;5033324;28;20634;-77
2020/12/25 08:46:09;;;;;;;9.97;4.43;;;;;;;12.54;42.82;103287.50;5014305;28;20060;-77
2020/12/25 08:48:48;;;;;;;9.40;3.87;;;;;;;12.65;42.43;103281.00;5008025;28;20530;-77
2020/12/25 08:51:15;;;;;;;8.43;3.83;;;;;;;12.71;42.42;103275.28;5017137;28;20091;-85
2020/12/25 08:53:54;;;;;;;8.20;3.63;;;;;;;12.78;42.32;103278.59;4990584;28;20034;-76
2020/12/25 08:56:22;;;;;;;22.63;15.27;;;;;;;12.86;42.16;103281.94;5010607;28;20072;-78
2020/12/25 08:58:58;;;;;;;21.13;12.40;;;;;;;12.86;42.00;103279.19;5013908;28;20034;-77
2020/12/25 09:01:25;;;;;;;74.17;44.40;;;;;;;12.76;42.47;103275.28;5011088;28;20030;-79
2020/12/25 09:03:51;;;;;;;24.03;14.40;;;;;;;12.85;42.31;103283.03;5015994;28;20036;-76
2020/12/25 09:06:17;;;;;;;221.95;169.25;;;;;;;12.95;42.47;103280.34;5017789;28;20473;-76
2020/12/25 09:08:43;;;;;;;41.43;37.33;;;;;;;13.06;42.02;103276.53;5011949;28;20030;-76
2020/12/25 09:11:17;;;;;;;15.40;10.65;;;;;;;12.97;42.12;103269.91;5016110;28;20403;-76
2020/12/25 09:13:43;;;;;;;10.17;5.80;;;;;;;13.14;41.75;103261.47;5020157;28;20112;-77
2020/12/25 09:16:09;;;;;;;13.30;6.07;;;;;;;13.17;41.68;103267.25;5013967;28;20038;-77
2020/12/25 09:18:35;;;;;;;13.93;4.85;;;;;;;13.18;41.70;103259.84;5012300;28;20030;-77
2020/12/25 09:21:01;;;;;;;6.60;3.80;;;;;;;13.18;41.62;103255.16;5016069;28;20051;-76
2020/12/25 09:23:28;;;;;;;10.20;4.70;;;;;;;13.09;41.79;103258.72;5020821;28;20030;-76
2020/12/25 09:25:54;;;;;;;8.00;4.13;;;;;;;12.85;42.64;103259.16;5019574;28;20037;-78
2020/12/25 09:28:20;;;;;;;10.63;4.97;;;;;;;12.85;42.44;103258.34;5010182;28;20433;-76
2020/12/25 09:30:45;;;;;;;6.93;4.65;;;;;;;12.96;42.01;103251.78;5002991;28;20104;-76
2020/12/25 09:33:11;;;;;;;9.33;4.13;;;;;;;12.94;42.22;103257.56;5004639;28;20034;-77
2020/12/25 09:35:37;;;;;;;9.87;5.23;;;;;;;12.89;42.17;103259.44;5012610;28;20534;-75
2020/12/25 09:38:03;;;;;;;8.77;3.87;;;;;;;12.96;41.95;103254.53;5016672;28;20037;-85
2020/12/25 09:40:29;;;;;;;7.07;4.40;;;;;;;13.03;41.62;103255.13;4994841;28;20060;-78
2020/12/25 09:42:54;;;;;;;8.80;3.83;;;;;;;13.03;41.60;103255.13;5024550;28;20392;-81
2020/12/25 09:45:20;;;;;;;6.15;3.88;;;;;;;12.80;42.35;103250.06;5010902;28;20034;-81
2020/12/25 09:47:47;;;;;;;7.83;4.73;;;;;;;12.88;42.33;103266.03;4996937;28;20461;-79
2020/12/25 09:50:13;;;;;;;6.50;4.78;;;;;;;13.14;41.59;103259.53;4991983;28;20038;-78
2020/12/25 09:52:38;;;;;;;9.88;4.20;;;;;;;13.20;41.70;103255.75;4989457;28;20123;-86
2020/12/25 09:55:04;;;;;;;7.05;4.60;;;;;;;13.31;41.32;103243.72;4990531;28;20393;-89
2020/12/25 09:57:30;;;;;;;12.27;7.37;;;;;;;13.55;40.84;103251.47;4997074;28;20419;-78
2020/12/25 09:59:56;;;;;;;12.70;8.88;;;;;;;13.59;40.90;103247.88;4978623;28;20055;-75
2020/12/25 10:02:22;;;;;;;40.50;34.08;;;;;;;13.68;40.70;103234.44;4992921;28;20030;-76
2020/12/25 10:04:48;;;;;;;55.00;41.15;;;;;;;13.77;40.62;103238.28;4993259;28;20054;-76
2020/12/25 10:07:14;;;;;;;95.83;77.53;;;;;;;13.78;40.81;103245.44;4992113;28;20362;-76
2020/12/25 10:09:40;;;;;;;104.32;76.65;;;;;;;13.89;40.44;103244.31;4992583;28;20038;-77
2020/12/25 10:12:09;;;;;;;14.52;7.97;;;;;;;13.92;40.35;103253.97;5009119;28;20038;-76
2020/12/25 10:14:35;;;;;;;133.68;87.47;;;;;;;13.88;40.53;103250.94;5010973;28;20101;-76
2020/12/25 10:17:02;;;;;;;211.38;132.50;;;;;;;14.02;40.30;103250.38;5004287;28;20022;-76
2020/12/25 10:19:29;;;;;;;50.28;30.10;;;;;;;14.02;40.29;103248.47;5002090;28;20408;-76
2020/12/25 10:21:55;;;;;;;39.30;31.02;;;;;;;14.19;40.20;103253.66;4998657;28;20030;-77
2020/12/25 10:24:20;;;;;;;9.35;5.03;;;;;;;14.25;40.09;103241.56;4988783;28;20036;-75
2020/12/25 10:26:49;;;;;;;11.13;6.72;;;;;;;14.33;39.98;103246.50;4990582;28;20025;-75
2020/12/25 10:29:16;;;;;;;11.35;5.13;;;;;;;14.26;40.06;103251.47;4994201;28;20114;-76
2020/12/25 10:31:53;;;;;;;10.98;5.40;;;;;;;14.25;40.29;103254.50;4992594;28;20026;-76
2020/12/25 10:34:19;;;;;;;8.10;4.70;;;;;;;14.21;40.32;103254.22;5010862;28;20758;-76
2020/12/25 10:36:45;;;;;;;7.43;4.22;;;;;;;14.18;40.50;103265.78;5017814;28;20018;-74
2020/12/25 10:39:11;;;;;;;13.57;5.43;;;;;;;14.14;40.45;103262.75;5031042;28;20032;-75
2020/12/25 10:41:37;;;;;;;8.90;4.65;;;;;;;13.86;40.87;103266.06;5030860;28;20033;-74
2020/12/25 10:44:03;;;;;;;10.65;4.93;;;;;;;14.04;40.72;103264.66;5026669;28;20041;-75
2020/12/25 10:46:29;;;;;;;12.00;5.68;;;;;;;13.96;40.89;103257.81;5010228;28;20053;-75
2020/12/25 10:48:54;;;;;;;9.63;5.65;;;;;;;14.03;40.63;103261.09;5011203;28;20407;-75
2020/12/25 10:51:20;;;;;;;14.15;6.50;;;;;;;13.98;40.91;103263.00;4997317;28;20045;-76
2020/12/25 10:53:49;;;;;;;8.35;5.32;;;;;;;13.92;40.83;103251.22;5012586;28;20088;-76
2020/12/25 10:56:29;;;;;;;16.98;6.65;;;;;;;14.02;40.73;103253.13;4995934;28;20030;-75
2020/12/25 10:58:55;;;;;;;9.23;5.65;;;;;;;14.13;40.68;103252.00;5016103;28;20022;-75
2020/12/25 11:01:25;;;;;;;9.05;5.32;;;;;;;13.71;41.55;103255.88;5004806;28;20060;-75
2020/12/25 11:03:52;;;;;;;8.00;5.50;;;;;;;13.29;42.75;103256.88;4998122;28;20113;-75
2020/12/25 11:06:18;;;;;;;8.20;5.18;;;;;;;13.58;42.23;103264.63;5016250;28;20349;-75
2020/12/25 11:08:47;;;;;;;12.23;6.32;;;;;;;13.44;42.51;103260.75;5011684;28;20033;-78
2020/12/25 11:11:30;;;;;;;12.13;6.55;;;;;;;13.53;42.38;103256.41;5026746;28;20488;-77
2020/12/25 11:13:56;;;;;;;9.77;5.55;;;;;;;13.25;43.22;103257.69;5023906;28;20395;-78
2020/12/25 11:16:29;;;;;;;10.55;5.43;;;;;;;13.14;43.81;103245.00;5022453;28;20041;-77
2020/12/25 11:18:57;;;;;;;10.30;5.72;;;;;;;13.47;42.81;103241.00;5022683;28;20017;-78